Stone Cabin, Nevada Weather observations

Data are for observation ending at time listed.
 Day   Time    Ave.   Ave.  Ave.  Vector   Max.   Stn.    Total    Solar   Ave.  
  of    of     Air    Rel.  Wind   Wind    Wind   Baro.  Precip.   Rad.    Soil  
Year   Day     Temp.  Hum.  Speed  Dir.    Gust   Pres.                    Temp. 
2016   (PST)    F      %     mph   deg.    mph     mb.     in.     W/m2     F   
------------------------------------------------------------------------------
 178    3:00   49.4    26    0.5   298      4.2    817     0.00       0    64.9
 178    4:00   50.1    25    0.1   230      2.9    818     0.00       0    64.3
 178    5:00   48.7    29    0.5   280      3.1    819     0.00       6    63.8
 178    6:00   51.3    33    0.4   279      3.5    818     0.00      24    63.3
 178    7:00   61.6    30    0.1    33      3.3    818     0.00     241    63.1
 178    8:00   77.6    18    0.1    71      2.4    818     0.00     556    63.5
 178    9:00   84.0    16    0.1   125      1.7    823     0.00     747    65.0
 178   10:00   87.0    13    0.2   344      2.4    824     0.00     910    66.9
 178   11:00   87.9    10    2.8   173     11.2    820     0.00    1019    69.3
 178   12:00   89.6     9    6.0   183     18.3    820     0.00    1061    71.0
 178   13:00   90.3     9    5.6   202     19.1    819     0.00    1038    71.8
 178   14:00   91.9     9    4.9   202     16.3    819     0.00     960    71.8
 178   15:00   92.4     9    5.4   173     14.0    822     0.00     831    72.2
 178   16:00   92.1     8    4.6   204     16.1    821     0.00     665    72.5
 178   17:00   91.9     8    4.9   190     14.6    822     0.00     466    72.5
 178   18:00   89.6     8    3.1   187     12.0    823     0.00     185    72.2
 178   19:00   86.4     9    2.2   164      8.6    823     0.00      51    71.9
 178   20:00   78.1    11    0.5   164      4.0    822     0.00       4    71.4
 178   21:00   70.0    13    0.1   198      2.9    821     0.00       0    70.5
 178   22:00   66.7    17    0.4   298      3.9    823     0.00       0    69.6
 178   23:00   58.7    23    0.4   331      2.7    824     0.00       0    68.8
 179    0:00   54.3    23    0.8   301      3.8    824     0.00       0    68.0
 179    1:00   52.1    26    0.4   321      3.7    822     0.00       0    67.2
 179    2:00   51.0    28    0.3   298      4.1    820     0.00       0    66.5

Return to Stone Cabin, Nevada graphs page.


Western Regional Climate Center,wrcc@dri.edu